Bg Felixstowe — V2BR7 — position and weather

sailwx.info

Track history (hours):
 
Tides and Currents Weather Stations Pressure Air Temp Water Temp Dewpoint Dewpoint Depression Visibility Wind Speed Wind Dir Waves Ship Positions

Bg Felixstowe

Last reported at 2017-Sep-22 02:00 UTC. Time now 2017-Sep-25 13:33 UTC.
Position N 25°46' W 080°10'.

Length 139 m; draft 5.5 m.

Type: Ship. MMSI: 304906000.

Date/timePositionNaut miles runAvg speedWind from/ knotsBaromVisibWave heightAir tempDewpointWater temp
2017-Sep-22 02:00N 25°46' W 080°10'0 0.0
2017-Sep-22 01:27N 25°46' W 080°10'0 0.0
2017-Sep-22 01:00N 25°46' W 080°10'0 0.0
2017-Sep-22 00:29N 25°46' W 080°10'0 0.0
2017-Sep-21 23:59N 25°46' W 080°10'0 0.5
2017-Sep-21 23:30N 25°46' W 080°10'1 1.9
2017-Sep-21 22:58N 25°46' W 080°09'0 0.0
2017-Sep-21 22:25N 25°46' W 080°09'0 0.0
2017-Sep-21 21:57N 25°46' W 080°09'0 0.0
2017-Sep-21 21:24N 25°46' W 080°09'0 0.0
2017-Sep-21 21:00N 25°46' W 080°09'0 0.0
2017-Sep-21 20:30N 25°46' W 080°09'0 0.0
2017-Sep-21 19:59N 25°46' W 080°09'0 0.0
2017-Sep-21 19:26N 25°46' W 080°09'0 0.0
2017-Sep-21 18:59N 25°46' W 080°09'0 0.0
2017-Sep-21 18:29N 25°46' W 080°09'0 0.0
2017-Sep-21 17:59N 25°46' W 080°09'0 0.0
2017-Sep-21 17:28N 25°46' W 080°09'0 0.0
2017-Sep-21 16:58N 25°46' W 080°09'0 0.0
2017-Sep-21 16:28N 25°46' W 080°09'1 2.0
2017-Sep-21 16:00N 25°46' W 080°10'0 0.4
2017-Sep-21 15:28N 25°46' W 080°10'0 0.0
2017-Sep-21 15:00N 25°46' W 080°10'0 0.0
2017-Sep-21 14:30N 25°46' W 080°10'0 0.0
2017-Sep-21 14:00N 25°46' W 080°10'0 0.0
2017-Sep-21 13:30N 25°46' W 080°10'0 0.0
2017-Sep-21 12:59N 25°46' W 080°10'0 0.0
2017-Sep-21 12:29N 25°46' W 080°10'0 0.0
2017-Sep-21 11:59N 25°46' W 080°10'0 0.0
2017-Sep-21 11:29N 25°46' W 080°10'0 0.3
2017-Sep-21 10:59N 25°46' W 080°10'2 5.0
2017-Sep-21 10:30N 25°46' W 080°07'4 9.0
2017-Sep-21 10:01N 25°45' W 080°02'5 9.1
2017-Sep-21 09:30N 25°41' W 080°02'5 9.0
2017-Sep-21 09:00N 25°37' W 079°60'713.2
2017-Sep-21 08:30N 25°30' W 079°60'713.1
2017-Sep-21 08:00N 25°24' W 080°00'612.8
2017-Sep-21 07:30N 25°17' W 080°02'6013.2
2017-Sep-21 02:57N 24°26' W 080°36'613.4
2017-Sep-21 02:29N 24°21' W 080°40'  
2017-Sep-16 08:20N 25°15' W 080°03'515.5
2017-Sep-16 08:00N 25°20' W 080°01'714.5
2017-Sep-16 07:30N 25°27' W 080°01'714.2
2017-Sep-16 07:00N 25°34' W 080°01'714.2
2017-Sep-16 06:31N 25°41' W 080°02'611.5
2017-Sep-16 06:00N 25°45' W 080°06'3 6.6
2017-Sep-16 05:31N 25°46' W 080°10'0 0.6
2017-Sep-16 05:00N 25°46' W 080°10'0 0.0
2017-Sep-16 04:27N 25°46' W 080°10'0 0.0
2017-Sep-16 03:54N 25°46' W 080°10'0 0.0
2017-Sep-16 03:30N 25°46' W 080°10'0 0.0
2017-Sep-16 02:59N 25°46' W 080°10'0 0.0
2017-Sep-16 02:29N 25°46' W 080°10'0 0.0
2017-Sep-16 01:59N 25°46' W 080°10'0 0.0
2017-Sep-16 01:26N 25°46' W 080°10'0 0.0
2017-Sep-16 00:59N 25°46' W 080°10'0 0.0
2017-Sep-16 00:28N 25°46' W 080°10'0 0.0
2017-Sep-15 23:58N 25°46' W 080°10'0 0.0
2017-Sep-15 23:28N 25°46' W 080°10'0 0.0
2017-Sep-15 22:58N 25°46' W 080°10'0 0.0
2017-Sep-15 22:30N 25°46' W 080°10'0 0.0
2017-Sep-15 22:00N 25°46' W 080°10'0 0.0
2017-Sep-15 21:30N 25°46' W 080°10'0 0.0
2017-Sep-15 21:00N 25°46' W 080°10'0 0.0
2017-Sep-15 20:30N 25°46' W 080°10'0 0.0
2017-Sep-15 19:59N 25°46' W 080°10'0 0.0
2017-Sep-15 19:29N 25°46' W 080°10'0 0.0
2017-Sep-15 18:59N 25°46' W 080°10'0 0.0
2017-Sep-15 18:29N 25°46' W 080°10'0 0.0
2017-Sep-15 17:59N 25°46' W 080°10'0 0.0
2017-Sep-15 17:28N 25°46' W 080°10'0 0.0
2017-Sep-15 16:58N 25°46' W 080°10'0 0.0
2017-Sep-15 16:28N 25°46' W 080°10'0 0.0
2017-Sep-15 15:58N 25°46' W 080°10'0 0.0
2017-Sep-15 15:30N 25°46' W 080°10'0 0.0
2017-Sep-15 14:57N 25°46' W 080°10'0 0.0
2017-Sep-15 14:27N 25°46' W 080°10'0 0.0
2017-Sep-15 14:00N 25°46' W 080°10'0 0.0
2017-Sep-15 13:30N 25°46' W 080°10'0 0.0
2017-Sep-15 12:56N 25°46' W 080°10'0 0.0
2017-Sep-15 12:29N 25°46' W 080°10'0 0.0
2017-Sep-15 11:59N 25°46' W 080°10'0 0.0
2017-Sep-15 11:29N 25°46' W 080°10'0 0.0
2017-Sep-15 10:59N 25°46' W 080°10'0 0.0
2017-Sep-15 10:28N 25°46' W 080°10'0 0.0
2017-Sep-15 09:58N 25°46' W 080°10'0 0.0
2017-Sep-15 09:28N 25°46' W 080°10'0 0.0
2017-Sep-15 08:58N 25°46' W 080°10'0 0.0
2017-Sep-15 08:30N 25°46' W 080°10'0 0.0
2017-Sep-15 08:00N 25°46' W 080°10'0 0.0
2017-Sep-15 07:27N 25°46' W 080°10'0 0.0
2017-Sep-15 07:00N 25°46' W 080°10'0 0.0
2017-Sep-15 06:30N 25°46' W 080°10'0 0.0
2017-Sep-15 05:59N 25°46' W 080°10'0 0.0
2017-Sep-15 05:29N 25°46' W 080°10'0 0.0
2017-Sep-15 04:59N 25°46' W 080°10'0 0.0
2017-Sep-15 04:29N 25°46' W 080°10'0 0.0
2017-Sep-15 03:58N 25°46' W 080°10'0 0.0
2017-Sep-15 03:28N 25°46' W 080°10'0 0.0
2017-Sep-15 02:58N 25°46' W 080°10'0 0.0
2017-Sep-15 02:28N 25°46' W 080°10'0 0.0
2017-Sep-15 01:58N 25°46' W 080°10'0 0.0
2017-Sep-15 01:30N 25°46' W 080°10'0 0.0
2017-Sep-15 01:00N 25°46' W 080°10'0 0.0
2017-Sep-15 00:30N 25°46' W 080°10'0 0.0
2017-Sep-15 00:00N 25°46' W 080°10'0 0.0
2017-Sep-14 23:30N 25°46' W 080°10'0 0.0
2017-Sep-14 22:59N 25°46' W 080°10'0 0.0
2017-Sep-14 22:29N 25°46' W 080°10'0 0.0
2017-Sep-14 21:59N 25°46' W 080°10'0 0.0
2017-Sep-14 21:29N 25°46' W 080°10'0 0.0
2017-Sep-14 20:58N 25°46' W 080°10'0 0.0
2017-Sep-14 20:28N 25°46' W 080°10'0 0.0
2017-Sep-14 20:00N 25°46' W 080°10'2 3.4
2017-Sep-14 19:31N 25°46' W 080°08'3 5.7
2017-Sep-14 18:57N 25°47' W 080°05'0 0.0
2017-Sep-14 18:30N 25°47' W 080°05'0 0.0
2017-Sep-14 18:00N 25°47' W 080°05'0 0.0
2017-Sep-14 17:27N 25°47' W 080°05'0 0.0
2017-Sep-14 17:00N 25°47' W 080°05'0 0.0
2017-Sep-14 16:29N 25°47' W 080°05'0 0.0
2017-Sep-14 15:56N 25°47' W 080°05'0 0.0
2017-Sep-14 15:29N 25°47' W 080°05'0 0.0
2017-Sep-14 14:56N 25°47' W 080°05'0 0.0
2017-Sep-14 14:28N 25°47' W 080°05'0 0.0
2017-Sep-14 13:58N 25°47' W 080°05'0 0.0
2017-Sep-14 13:28N 25°47' W 080°05'0 0.0
2017-Sep-14 12:58N 25°47' W 080°05'0 0.0
2017-Sep-14 12:28N 25°47' W 080°05'0 0.0
2017-Sep-14 12:00N 25°47' W 080°05'0 0.0
2017-Sep-14 11:30N 25°47' W 080°05'0 0.0
2017-Sep-14 11:00N 25°47' W 080°05'0 0.0
2017-Sep-14 10:27N 25°47' W 080°05'0 0.1
2017-Sep-14 10:00N 25°47' W 080°05'0 0.0
2017-Sep-14 09:29N 25°47' W 080°05'0 0.0
2017-Sep-14 08:59N 25°47' W 080°05'0 0.0
2017-Sep-14 08:29N 25°47' W 080°05'0 0.0
2017-Sep-14 07:59N 25°47' W 080°05'0 0.0
2017-Sep-14 07:19N 25°47' W 080°05'0 0.0
2017-Sep-14 06:58N 25°47' W 080°05'0 0.0
2017-Sep-14 06:18N 25°47' W 080°05'0 0.0
2017-Sep-14 05:58N 25°47' W 080°05'0 0.0
2017-Sep-14 05:28N 25°47' W 080°05'0 0.0
2017-Sep-14 05:00N 25°47' W 080°05'0 0.0
2017-Sep-14 04:24N 25°47' W 080°05'0 0.0
2017-Sep-14 04:00N 25°47' W 080°05'0 0.0
2017-Sep-14 03:24N 25°47' W 080°05'0 0.0
2017-Sep-14 02:59N 25°47' W 080°05'0 0.0
2017-Sep-14 02:26N 25°47' W 080°05'0 0.0
2017-Sep-14 01:59N 25°47' W 080°05'0 0.0
2017-Sep-14 01:29N 25°47' W 080°05'0 0.0
2017-Sep-14 00:59N 25°47' W 080°05'0 0.0
2017-Sep-14 00:28N 25°47' W 080°05'1 1.1
2017-Sep-14 00:00N 25°47' W 080°05'4 8.0
2017-Sep-13 23:31N 25°46' W 080°09'1 1.6
2017-Sep-13 22:58N 25°46' W 080°10'0 0.0
2017-Sep-13 22:28N 25°46' W 080°10'0 0.0
2017-Sep-13 21:58N 25°46' W 080°10'0 0.0
2017-Sep-13 21:28N 25°46' W 080°10'0 0.0
2017-Sep-13 20:58N 25°46' W 080°10'0 0.0
2017-Sep-13 20:30N 25°46' W 080°10'0 0.0
2017-Sep-13 20:00N 25°46' W 080°10'0 0.0
2017-Sep-13 19:30N 25°46' W 080°10'0 0.0
2017-Sep-13 19:00N 25°46' W 080°10'0 0.0
2017-Sep-13 18:30N 25°46' W 080°10'0 0.0
2017-Sep-13 17:59N 25°46' W 080°10'0 0.0
2017-Sep-13 17:29N 25°46' W 080°10'0 0.0
2017-Sep-13 16:59N 25°46' W 080°10'0 0.0
2017-Sep-13 16:29N 25°46' W 080°10'0 0.0
2017-Sep-13 15:59N 25°46' W 080°10'0 0.0
2017-Sep-13 15:28N 25°46' W 080°10'0 0.0
2017-Sep-13 14:58N 25°46' W 080°10'0 0.0
2017-Sep-13 14:25N 25°46' W 080°10'0 0.0
2017-Sep-13 13:58N 25°46' W 080°10'0 0.0
2017-Sep-13 13:30N 25°46' W 080°10'0 0.0
2017-Sep-13 13:00N 25°46' W 080°10'0 0.0
2017-Sep-13 12:27N 25°46' W 080°10'0 0.0
2017-Sep-13 12:00N 25°46' W 080°10'1 1.6
2017-Sep-13 11:31N 25°46' W 080°09'4 8.4
2017-Sep-13 11:00N 25°47' W 080°05'1 1.4
2017-Sep-13 10:29N 25°47' W 080°05'0 0.0
2017-Sep-13 09:52N 25°47' W 080°05'0 0.0
2017-Sep-13 09:28N 25°47' W 080°05'0 0.0
2017-Sep-13 08:58N 25°47' W 080°05'0 0.0
2017-Sep-13 08:28N 25°47' W 080°05'0 0.0
2017-Sep-13 07:52N 25°47' W 080°05'0 0.0
2017-Sep-13 07:30N 25°47' W 080°05'0 0.0
2017-Sep-13 07:00N 25°47' W 080°05'0 0.0
2017-Sep-13 06:30N 25°47' W 080°05'0 0.0
2017-Sep-13 06:00N 25°47' W 080°05'0 0.0
2017-Sep-13 05:27N 25°47' W 080°05'0 0.0
2017-Sep-13 04:59N 25°47' W 080°05'0 0.0
2017-Sep-13 04:29N 25°47' W 080°05'0 0.0
2017-Sep-13 03:59N 25°47' W 080°05'0 0.0
2017-Sep-13 03:26N 25°47' W 080°05'0 0.0
2017-Sep-13 02:58N 25°47' W 080°05'0 0.0
2017-Sep-13 02:28N 25°47' W 080°05'0 0.0
2017-Sep-13 01:58N 25°47' W 080°05'0 0.0
2017-Sep-13 01:19N 25°47' W 080°05'0 0.0
2017-Sep-13 00:58N 25°47' W 080°05'0 0.0
2017-Sep-13 00:30N 25°47' W 080°05'0 0.0
2017-Sep-13 00:00N 25°47' W 080°05'2 3.9
2017-Sep-12 23:30N 25°49' W 080°04'2 4.0
2017-Sep-12 23:00N 25°50' W 080°02'2 4.8
2017-Sep-12 22:30N 25°48' W 080°03'2 3.5
2017-Sep-12 22:00N 25°46' W 080°02'2 3.5
2017-Sep-12 21:30N 25°44' W 080°01'2 3.6
2017-Sep-12 21:00N 25°43' W 080°00'2 4.7
2017-Sep-12 20:30N 25°41' W 080°00'815.5
2017-Sep-12 20:00N 25°33' W 079°60'918.3
2017-Sep-12 19:29N 25°23' W 080°00'  
Track history (hours):
 
Tides and Currents Weather Stations Pressure Air Temp Water Temp Dewpoint Dewpoint Depression Visibility Wind Speed Wind Dir Waves Ship Positions

Bg Felixstowe

Last reported at 2017-Sep-22 02:00 UTC. Time now 2017-Sep-25 13:33 UTC.
Position N 25°46' W 080°10'.

Length 139 m; draft 5.5 m.

Type: Ship. MMSI: 304906000.

Date/timePositionNaut miles runAvg speedWind from/ knotsBaromVisibWave heightAir tempDewpointWater temp
2017-Sep-22 02:00N 25°46' W 080°10'0 0.0
2017-Sep-22 01:27N 25°46' W 080°10'0 0.0
2017-Sep-22 01:00N 25°46' W 080°10'0 0.0
2017-Sep-22 00:29N 25°46' W 080°10'0 0.0
2017-Sep-21 23:59N 25°46' W 080°10'0 0.5
2017-Sep-21 23:30N 25°46' W 080°10'1 1.9
2017-Sep-21 22:58N 25°46' W 080°09'0 0.0
2017-Sep-21 22:25N 25°46' W 080°09'0 0.0
2017-Sep-21 21:57N 25°46' W 080°09'0 0.0
2017-Sep-21 21:24N 25°46' W 080°09'0 0.0
2017-Sep-21 21:00N 25°46' W 080°09'0 0.0
2017-Sep-21 20:30N 25°46' W 080°09'0 0.0
2017-Sep-21 19:59N 25°46' W 080°09'0 0.0
2017-Sep-21 19:26N 25°46' W 080°09'0 0.0
2017-Sep-21 18:59N 25°46' W 080°09'0 0.0
2017-Sep-21 18:29N 25°46' W 080°09'0 0.0
2017-Sep-21 17:59N 25°46' W 080°09'0 0.0
2017-Sep-21 17:28N 25°46' W 080°09'0 0.0
2017-Sep-21 16:58N 25°46' W 080°09'0 0.0
2017-Sep-21 16:28N 25°46' W 080°09'1 2.0
2017-Sep-21 16:00N 25°46' W 080°10'0 0.4
2017-Sep-21 15:28N 25°46' W 080°10'0 0.0
2017-Sep-21 15:00N 25°46' W 080°10'0 0.0
2017-Sep-21 14:30N 25°46' W 080°10'0 0.0
2017-Sep-21 14:00N 25°46' W 080°10'0 0.0
2017-Sep-21 13:30N 25°46' W 080°10'0 0.0
2017-Sep-21 12:59N 25°46' W 080°10'0 0.0
2017-Sep-21 12:29N 25°46' W 080°10'0 0.0
2017-Sep-21 11:59N 25°46' W 080°10'0 0.0
2017-Sep-21 11:29N 25°46' W 080°10'0 0.3
2017-Sep-21 10:59N 25°46' W 080°10'2 5.0
2017-Sep-21 10:30N 25°46' W 080°07'4 9.0
2017-Sep-21 10:01N 25°45' W 080°02'5 9.1
2017-Sep-21 09:30N 25°41' W 080°02'5 9.0
2017-Sep-21 09:00N 25°37' W 079°60'713.2
2017-Sep-21 08:30N 25°30' W 079°60'713.1
2017-Sep-21 08:00N 25°24' W 080°00'612.8
2017-Sep-21 07:30N 25°17' W 080°02'6013.2
2017-Sep-21 02:57N 24°26' W 080°36'613.4
2017-Sep-21 02:29N 24°21' W 080°40'  
2017-Sep-16 08:20N 25°15' W 080°03'515.5
2017-Sep-16 08:00N 25°20' W 080°01'714.5
2017-Sep-16 07:30N 25°27' W 080°01'714.2
2017-Sep-16 07:00N 25°34' W 080°01'714.2
2017-Sep-16 06:31N 25°41' W 080°02'611.5
2017-Sep-16 06:00N 25°45' W 080°06'3 6.6
2017-Sep-16 05:31N 25°46' W 080°10'0 0.6
2017-Sep-16 05:00N 25°46' W 080°10'0 0.0
2017-Sep-16 04:27N 25°46' W 080°10'0 0.0
2017-Sep-16 03:54N 25°46' W 080°10'0 0.0
2017-Sep-16 03:30N 25°46' W 080°10'0 0.0
2017-Sep-16 02:59N 25°46' W 080°10'0 0.0
2017-Sep-16 02:29N 25°46' W 080°10'0 0.0
2017-Sep-16 01:59N 25°46' W 080°10'0 0.0
2017-Sep-16 01:26N 25°46' W 080°10'0 0.0
2017-Sep-16 00:59N 25°46' W 080°10'0 0.0
2017-Sep-16 00:28N 25°46' W 080°10'0 0.0
2017-Sep-15 23:58N 25°46' W 080°10'0 0.0
2017-Sep-15 23:28N 25°46' W 080°10'0 0.0
2017-Sep-15 22:58N 25°46' W 080°10'0 0.0
2017-Sep-15 22:30N 25°46' W 080°10'0 0.0
2017-Sep-15 22:00N 25°46' W 080°10'0 0.0
2017-Sep-15 21:30N 25°46' W 080°10'0 0.0
2017-Sep-15 21:00N 25°46' W 080°10'0 0.0
2017-Sep-15 20:30N 25°46' W 080°10'0 0.0
2017-Sep-15 19:59N 25°46' W 080°10'0 0.0
2017-Sep-15 19:29N 25°46' W 080°10'0 0.0
2017-Sep-15 18:59N 25°46' W 080°10'0 0.0
2017-Sep-15 18:29N 25°46' W 080°10'0 0.0
2017-Sep-15 17:59N 25°46' W 080°10'0 0.0
2017-Sep-15 17:28N 25°46' W 080°10'0 0.0
2017-Sep-15 16:58N 25°46' W 080°10'0 0.0
2017-Sep-15 16:28N 25°46' W 080°10'0 0.0
2017-Sep-15 15:58N 25°46' W 080°10'0 0.0
2017-Sep-15 15:30N 25°46' W 080°10'0 0.0
2017-Sep-15 14:57N 25°46' W 080°10'0 0.0
2017-Sep-15 14:27N 25°46' W 080°10'0 0.0
2017-Sep-15 14:00N 25°46' W 080°10'0 0.0
2017-Sep-15 13:30N 25°46' W 080°10'0 0.0
2017-Sep-15 12:56N 25°46' W 080°10'0 0.0
2017-Sep-15 12:29N 25°46' W 080°10'0 0.0
2017-Sep-15 11:59N 25°46' W 080°10'0 0.0
2017-Sep-15 11:29N 25°46' W 080°10'0 0.0
2017-Sep-15 10:59N 25°46' W 080°10'0 0.0
2017-Sep-15 10:28N 25°46' W 080°10'0 0.0
2017-Sep-15 09:58N 25°46' W 080°10'0 0.0
2017-Sep-15 09:28N 25°46' W 080°10'0 0.0
2017-Sep-15 08:58N 25°46' W 080°10'0 0.0
2017-Sep-15 08:30N 25°46' W 080°10'0 0.0
2017-Sep-15 08:00N 25°46' W 080°10'0 0.0
2017-Sep-15 07:27N 25°46' W 080°10'0 0.0
2017-Sep-15 07:00N 25°46' W 080°10'0 0.0
2017-Sep-15 06:30N 25°46' W 080°10'0 0.0
2017-Sep-15 05:59N 25°46' W 080°10'0 0.0
2017-Sep-15 05:29N 25°46' W 080°10'0 0.0
2017-Sep-15 04:59N 25°46' W 080°10'0 0.0
2017-Sep-15 04:29N 25°46' W 080°10'0 0.0
2017-Sep-15 03:58N 25°46' W 080°10'0 0.0
2017-Sep-15 03:28N 25°46' W 080°10'0 0.0
2017-Sep-15 02:58N 25°46' W 080°10'0 0.0
2017-Sep-15 02:28N 25°46' W 080°10'0 0.0
2017-Sep-15 01:58N 25°46' W 080°10'0 0.0
2017-Sep-15 01:30N 25°46' W 080°10'0 0.0
2017-Sep-15 01:00N 25°46' W 080°10'0 0.0
2017-Sep-15 00:30N 25°46' W 080°10'0 0.0
2017-Sep-15 00:00N 25°46' W 080°10'0 0.0
2017-Sep-14 23:30N 25°46' W 080°10'0 0.0
2017-Sep-14 22:59N 25°46' W 080°10'0 0.0
2017-Sep-14 22:29N 25°46' W 080°10'0 0.0
2017-Sep-14 21:59N 25°46' W 080°10'0 0.0
2017-Sep-14 21:29N 25°46' W 080°10'0 0.0
2017-Sep-14 20:58N 25°46' W 080°10'0 0.0
2017-Sep-14 20:28N 25°46' W 080°10'0 0.0
2017-Sep-14 20:00N 25°46' W 080°10'2 3.4
2017-Sep-14 19:31N 25°46' W 080°08'3 5.7
2017-Sep-14 18:57N 25°47' W 080°05'0 0.0
2017-Sep-14 18:30N 25°47' W 080°05'0 0.0
2017-Sep-14 18:00N 25°47' W 080°05'0 0.0
2017-Sep-14 17:27N 25°47' W 080°05'0 0.0
2017-Sep-14 17:00N 25°47' W 080°05'0 0.0
2017-Sep-14 16:29N 25°47' W 080°05'0 0.0
2017-Sep-14 15:56N 25°47' W 080°05'0 0.0
2017-Sep-14 15:29N 25°47' W 080°05'0 0.0
2017-Sep-14 14:56N 25°47' W 080°05'0 0.0
2017-Sep-14 14:28N 25°47' W 080°05'0 0.0
2017-Sep-14 13:58N 25°47' W 080°05'0 0.0
2017-Sep-14 13:28N 25°47' W 080°05'0 0.0
2017-Sep-14 12:58N 25°47' W 080°05'0 0.0
2017-Sep-14 12:28N 25°47' W 080°05'0 0.0
2017-Sep-14 12:00N 25°47' W 080°05'0 0.0
2017-Sep-14 11:30N 25°47' W 080°05'0 0.0
2017-Sep-14 11:00N 25°47' W 080°05'0 0.0
2017-Sep-14 10:27N 25°47' W 080°05'0 0.1
2017-Sep-14 10:00N 25°47' W 080°05'0 0.0
2017-Sep-14 09:29N 25°47' W 080°05'0 0.0
2017-Sep-14 08:59N 25°47' W 080°05'0 0.0
2017-Sep-14 08:29N 25°47' W 080°05'0 0.0
2017-Sep-14 07:59N 25°47' W 080°05'0 0.0
2017-Sep-14 07:19N 25°47' W 080°05'0 0.0
2017-Sep-14 06:58N 25°47' W 080°05'0 0.0
2017-Sep-14 06:18N 25°47' W 080°05'0 0.0
2017-Sep-14 05:58N 25°47' W 080°05'0 0.0
2017-Sep-14 05:28N 25°47' W 080°05'0 0.0
2017-Sep-14 05:00N 25°47' W 080°05'0 0.0
2017-Sep-14 04:24N 25°47' W 080°05'0 0.0
2017-Sep-14 04:00N 25°47' W 080°05'0 0.0
2017-Sep-14 03:24N 25°47' W 080°05'0 0.0
2017-Sep-14 02:59N 25°47' W 080°05'0 0.0
2017-Sep-14 02:26N 25°47' W 080°05'0 0.0
2017-Sep-14 01:59N 25°47' W 080°05'0 0.0
2017-Sep-14 01:29N 25°47' W 080°05'0 0.0
2017-Sep-14 00:59N 25°47' W 080°05'0 0.0
2017-Sep-14 00:28N 25°47' W 080°05'1 1.1
2017-Sep-14 00:00N 25°47' W 080°05'4 8.0
2017-Sep-13 23:31N 25°46' W 080°09'1 1.6
2017-Sep-13 22:58N 25°46' W 080°10'0 0.0
2017-Sep-13 22:28N 25°46' W 080°10'0 0.0
2017-Sep-13 21:58N 25°46' W 080°10'0 0.0
2017-Sep-13 21:28N 25°46' W 080°10'0 0.0
2017-Sep-13 20:58N 25°46' W 080°10'0 0.0
2017-Sep-13 20:30N 25°46' W 080°10'0 0.0
2017-Sep-13 20:00N 25°46' W 080°10'0 0.0
2017-Sep-13 19:30N 25°46' W 080°10'0 0.0
2017-Sep-13 19:00N 25°46' W 080°10'0 0.0
2017-Sep-13 18:30N 25°46' W 080°10'0 0.0
2017-Sep-13 17:59N 25°46' W 080°10'0 0.0
2017-Sep-13 17:29N 25°46' W 080°10'0 0.0
2017-Sep-13 16:59N 25°46' W 080°10'0 0.0
2017-Sep-13 16:29N 25°46' W 080°10'0 0.0
2017-Sep-13 15:59N 25°46' W 080°10'0 0.0
2017-Sep-13 15:28N 25°46' W 080°10'0 0.0
2017-Sep-13 14:58N 25°46' W 080°10'0 0.0
2017-Sep-13 14:25N 25°46' W 080°10'0 0.0
2017-Sep-13 13:58N 25°46' W 080°10'0 0.0
2017-Sep-13 13:30N 25°46' W 080°10'0 0.0
2017-Sep-13 13:00N 25°46' W 080°10'0 0.0
2017-Sep-13 12:27N 25°46' W 080°10'0 0.0
2017-Sep-13 12:00N 25°46' W 080°10'1 1.6
2017-Sep-13 11:31N 25°46' W 080°09'4 8.4
2017-Sep-13 11:00N 25°47' W 080°05'1 1.4
2017-Sep-13 10:29N 25°47' W 080°05'0 0.0
2017-Sep-13 09:52N 25°47' W 080°05'0 0.0
2017-Sep-13 09:28N 25°47' W 080°05'0 0.0
2017-Sep-13 08:58N 25°47' W 080°05'0 0.0
2017-Sep-13 08:28N 25°47' W 080°05'0 0.0
2017-Sep-13 07:52N 25°47' W 080°05'0 0.0
2017-Sep-13 07:30N 25°47' W 080°05'0 0.0
2017-Sep-13 07:00N 25°47' W 080°05'0 0.0
2017-Sep-13 06:30N 25°47' W 080°05'0 0.0
2017-Sep-13 06:00N 25°47' W 080°05'0 0.0
2017-Sep-13 05:27N 25°47' W 080°05'0 0.0
2017-Sep-13 04:59N 25°47' W 080°05'0 0.0
2017-Sep-13 04:29N 25°47' W 080°05'0 0.0
2017-Sep-13 03:59N 25°47' W 080°05'0 0.0
2017-Sep-13 03:26N 25°47' W 080°05'0 0.0
2017-Sep-13 02:58N 25°47' W 080°05'0 0.0
2017-Sep-13 02:28N 25°47' W 080°05'0 0.0
2017-Sep-13 01:58N 25°47' W 080°05'0 0.0
2017-Sep-13 01:19N 25°47' W 080°05'0 0.0
2017-Sep-13 00:58N 25°47' W 080°05'0 0.0
2017-Sep-13 00:30N 25°47' W 080°05'0 0.0
2017-Sep-13 00:00N 25°47' W 080°05'2 3.9
2017-Sep-12 23:30N 25°49' W 080°04'2 4.0
2017-Sep-12 23:00N 25°50' W 080°02'2 4.8
2017-Sep-12 22:30N 25°48' W 080°03'2 3.5
2017-Sep-12 22:00N 25°46' W 080°02'2 3.5
2017-Sep-12 21:30N 25°44' W 080°01'2 3.6
2017-Sep-12 21:00N 25°43' W 080°00'2 4.7
2017-Sep-12 20:30N 25°41' W 080°00'815.5
2017-Sep-12 20:00N 25°33' W 079°60'918.3
2017-Sep-12 19:29N 25°23' W 080°00'  

Dump ship's entire track history